Time;durP1;ratioP1;P1;durP2;ratioP2;P2;SDS_P1;SDS_P2;PMS_P1;PMS_P2;Temp;Humidity;BMP_temperature;BMP_pressure;BME280_temperature;BME280_humidity;BME280_pressure;Samples;Min_cycle;Max_cycle;Signal;HPM_P1;HPM_P2
2022/11/05 00:10:43;;;;;;;;;1.50;1.50;;;;;8.93;78.35;101458.81;5031536;28;10268;-65
2022/11/05 00:18:39;;;;;;;;;1.50;1.50;;;;;8.88;77.89;101462.00;5030649;28;10449;-63
2022/11/05 00:25:12;;;;;;;;;5.00;3.25;;;;;8.86;77.23;101465.84;5021561;28;10465;-65
2022/11/05 00:26:37;;;;;;;;;4.00;4.00;;;;;8.77;77.92;101475.75;5028807;28;10467;-66
2022/11/05 00:29:04;;;;;;;;;4.00;4.00;;;;;8.76;77.36;101476.75;5029120;28;10553;-65
2022/11/05 00:31:31;;;;;;;;;3.75;2.00;;;;;8.73;77.46;101482.44;5029884;28;10532;-65
2022/11/05 00:33:57;;;;;;;;;2.75;2.00;;;;;8.72;77.88;101480.78;5022755;28;10424;-66
2022/11/05 00:36:23;;;;;;;;;1.50;1.50;;;;;8.71;77.94;101480.94;5032916;28;10494;-65
2022/11/05 00:38:50;;;;;;;;;2.00;2.00;;;;;8.66;77.30;101490.31;5017538;28;10362;-66
2022/11/05 00:41:16;;;;;;;;;4.00;4.00;;;;;8.63;77.45;101490.66;5025400;28;10609;-66
2022/11/05 00:46:28;;;;;;;;;5.75;2.00;;;;;8.60;77.34;101491.00;5028383;28;10514;-65
2022/11/05 00:51:39;;;;;;;;;3.75;3.75;;;;;8.60;77.31;101492.84;5029765;28;10453;-65
2022/11/05 00:54:05;;;;;;;;;2.00;2.00;;;;;8.59;77.84;101491.16;5028434;28;10596;-64
2022/11/05 00:56:31;;;;;;;;;5.00;4.00;;;;;8.59;76.96;101492.00;5030418;28;10733;-65
2022/11/05 00:58:58;;;;;;;;;2.00;2.00;;;;;8.61;77.39;101491.84;5029005;28;10646;-66
2022/11/05 01:01:24;;;;;;;;;3.00;2.00;;;;;8.63;77.96;101493.34;5031914;28;10670;-65
2022/11/05 01:03:51;;;;;;;;;2.00;2.00;;;;;8.65;76.87;101495.88;5020725;28;10571;-66
2022/11/05 01:06:17;;;;;;;;;4.75;2.00;;;;;8.65;77.63;101502.06;5027014;28;10432;-63
2022/11/05 01:08:45;;;;;;;;;1.75;1.75;;;;;8.67;77.90;101507.28;5029361;28;10476;-65
2022/11/05 01:11:31;;;;;;;;;7.75;5.00;;;;;8.66;77.10;101513.63;5022689;28;11191;-65
2022/11/05 01:14:04;;;;;;;;;3.50;2.50;;;;;8.66;76.80;101513.63;5028772;28;10516;-66
2022/11/05 01:16:31;;;;;;;;;4.25;4.25;;;;;8.63;77.26;101519.34;5025689;28;10602;-65
2022/11/05 01:18:57;;;;;;;;;4.25;4.00;;;;;8.61;77.34;101516.81;5030029;28;10601;-65
2022/11/05 01:21:24;;;;;;;;;3.25;3.25;;;;;8.58;77.31;101510.94;5027135;28;10670;-66
2022/11/05 01:23:50;;;;;;;;;5.00;5.00;;;;;8.56;77.24;101519.16;5030580;28;10519;-65
2022/11/05 01:26:17;;;;;;;;;7.00;5.00;;;;;8.51;77.46;101512.63;5030082;28;10678;-66
2022/11/05 01:28:43;;;;;;;;;2.25;2.00;;;;;8.55;77.64;101516.66;5014266;28;11310;-65
2022/11/05 01:31:09;;;;;;;;;5.75;5.75;;;;;8.56;77.19;101518.31;5027546;28;10661;-65
2022/11/05 01:33:36;;;;;;;;;5.00;5.00;;;;;8.56;77.41;101512.97;5010719;28;10609;-65
2022/11/05 01:36:04;;;;;;;;;5.50;5.00;;;;;8.53;77.64;101518.66;5012671;28;10541;-65
2022/11/05 01:38:30;;;;;;;;;5.75;5.00;;;;;8.51;76.69;101509.94;5029828;28;10610;-65
2022/11/05 01:40:56;;;;;;;;;8.25;5.00;;;;;8.49;77.31;101518.13;5028998;28;10652;-65
2022/11/05 01:43:23;;;;;;;;;3.75;3.75;;;;;8.48;77.88;101512.94;5044395;28;10529;-65
2022/11/05 01:45:57;;;;;;;;;8.25;5.75;;;;;8.44;76.78;101509.75;5022588;28;10755;-65
2022/11/05 01:48:34;;;;;;;;;6.00;6.00;;;;;8.39;77.28;101504.03;5029147;28;10700;-65
2022/11/05 01:51:06;;;;;;;;;4.00;4.00;;;;;8.35;77.30;101502.66;5026979;28;10756;-65
2022/11/05 01:53:38;;;;;;;;;8.00;8.00;;;;;8.31;76.95;101498.63;5021002;28;10778;-65
2022/11/05 01:56:13;;;;;;;;;8.00;6.00;;;;;8.26;77.36;101501.75;5020052;28;10660;-65
2022/11/05 01:58:48;;;;;;;;;6.25;5.75;;;;;8.23;77.31;101502.13;5025295;28;11451;-65
2022/11/05 02:01:15;;;;;;;;;6.00;4.25;;;;;8.21;76.93;101497.91;5026248;28;10758;-65
2022/11/05 02:03:44;;;;;;;;;8.75;5.00;;;;;8.20;77.38;101493.56;5028964;28;10755;-65
2022/11/05 02:06:12;;;;;;;;;4.00;4.00;;;;;8.21;77.88;101500.59;5028081;28;10676;-65
2022/11/05 02:08:57;;;;;;;;;2.00;2.00;;;;;8.28;78.33;101497.09;5036532;28;10582;-65
2022/11/05 02:11:23;;;;;;;;;4.00;3.00;;;;;8.32;77.65;101500.28;5024782;28;10441;-65
2022/11/05 02:13:50;;;;;;;;;6.00;6.00;;;;;8.34;77.06;101499.09;5027118;28;10525;-65
2022/11/05 02:16:54;;;;;;;;;1.50;1.50;;;;;8.36;77.37;101498.97;5022124;28;10736;-65
2022/11/05 02:19:51;;;;;;;;;3.50;3.50;;;;;8.39;77.16;101496.81;5025550;28;10446;-65
2022/11/05 02:22:38;;;;;;;;;2.00;2.00;;;;;8.46;77.40;101510.41;5023343;28;10653;-65
2022/11/05 02:25:42;;;;;;;;;7.25;5.00;;;;;8.38;76.74;101516.59;5025940;28;10506;-65
2022/11/05 02:28:18;;;;;;;;;6.50;5.25;;;;;8.30;77.05;101503.13;5019714;28;10595;-65
2022/11/05 02:30:52;;;;;;;;;7.00;7.00;;;;;8.30;77.49;101495.06;5028056;28;10763;-65
2022/11/05 02:33:27;;;;;;;;;2.50;2.50;;;;;8.29;77.64;101504.13;5034955;28;10663;-65
2022/11/05 02:36:04;;;;;;;;;4.00;4.00;;;;;8.31;77.58;101503.97;5023768;28;10658;-65
2022/11/05 02:38:44;;;;;;;;;4.00;4.00;;;;;8.30;77.56;101500.44;5018869;28;10639;-66
2022/11/05 02:41:22;;;;;;;;;2.00;2.00;;;;;8.28;77.50;101499.78;5027469;28;10730;-65
2022/11/05 02:44:19;;;;;;;;;8.25;5.50;;;;;8.28;77.20;101493.56;5022229;28;10577;-65
2022/11/05 02:46:56;;;;;;;;;4.00;4.00;;;;;8.24;78.09;101495.75;5017940;28;10742;-65
2022/11/05 02:49:55;;;;;;;;;6.50;6.50;;;;;8.24;77.29;101497.59;5025136;28;10753;-65
2022/11/05 02:52:32;;;;;;;;;11.25;8.00;;;;;8.22;77.98;101488.84;5017646;28;10727;-65
2022/11/05 02:55:17;;;;;;;;;8.00;8.00;;;;;8.24;77.71;101495.75;5027939;28;11027;-65
2022/11/05 02:57:46;;;;;;;;;5.50;5.50;;;;;8.24;77.67;101493.06;5020940;28;10801;-65
2022/11/05 03:00:51;;;;;;;;;4.75;4.75;;;;;8.23;77.88;101507.47;5018775;28;10608;-65
2022/11/05 03:03:25;;;;;;;;;6.00;5.00;;;;;8.24;77.59;101503.78;5018006;28;10780;-65
2022/11/05 03:06:27;;;;;;;;;5.25;5.00;;;;;8.24;77.17;101498.41;5029432;28;10602;-65
2022/11/05 03:09:10;;;;;;;;;4.50;2.50;;;;;8.21;77.31;101498.75;4999784;28;10818;-65
2022/11/05 03:12:15;;;;;;;;;5.00;4.00;;;;;8.21;77.57;101495.22;5032044;28;10764;-65
2022/11/05 03:15:00;;;;;;;;;8.75;7.50;;;;;8.21;77.34;101496.06;5032895;28;10736;-65
2022/11/05 03:18:09;;;;;;;;;3.00;3.00;;;;;8.20;77.70;101491.72;5032502;28;10759;-65
2022/11/05 03:20:48;;;;;;;;;4.50;3.75;;;;;8.21;77.81;101493.38;5018807;28;10742;-65
2022/11/05 03:23:32;;;;;;;;;3.50;2.00;;;;;8.19;77.71;101490.03;5032718;28;10646;-65
2022/11/05 03:26:08;;;;;;;;;2.00;2.00;;;;;8.13;77.19;101496.03;5032622;28;10743;-64
2022/11/05 03:28:40;;;;;;;;;4.00;4.00;;;;;8.13;78.08;101493.34;5028676;28;10669;-65
2022/11/05 03:31:12;;;;;;;;;1.50;1.50;;;;;8.16;77.40;101498.41;5027301;28;10684;-65
2022/11/05 03:33:40;;;;;;;;;2.00;2.00;;;;;8.14;77.41;101492.34;5052962;28;10509;-65
2022/11/05 03:36:15;;;;;;;;;1.50;1.50;;;;;8.13;77.52;101490.66;5022700;28;10795;-66
2022/11/05 03:39:12;;;;;;;;;4.00;4.00;;;;;8.14;77.71;101498.56;5025271;28;10757;-65
2022/11/05 03:42:00;;;;;;;;;1.50;1.50;;;;;8.17;77.42;101494.69;5027574;28;11563;-66
2022/11/05 03:44:49;;;;;;;;;2.00;2.00;;;;;8.22;77.50;101484.31;5027620;28;10596;-65
2022/11/05 03:48:02;;;;;;;;;1.50;1.50;;;;;8.24;77.17;101482.31;5020238;28;10556;-65
2022/11/05 03:50:56;;;;;;;;;1.00;1.00;;;;;8.22;77.16;101488.84;5023170;28;10748;-65
2022/11/05 03:53:35;;;;;;;;;1.00;1.00;;;;;8.23;77.40;101480.66;5031990;28;10563;-65
2022/11/05 03:56:31;;;;;;;;;2.00;2.00;;;;;8.25;77.36;101484.00;5030874;28;10731;-65
2022/11/05 03:59:09;;;;;;;;;1.50;1.50;;;;;8.30;77.23;101489.72;5038594;28;10498;-65
2022/11/05 04:01:48;;;;;;;;;1.00;1.00;;;;;8.29;77.50;101487.19;5026945;28;10622;-65
2022/11/05 04:04:26;;;;;;;;;1.50;1.00;;;;;8.25;77.74;101489.38;5025767;28;10655;-65
2022/11/05 04:13:25;;;;;;;;;1.00;1.00;;;;;8.24;77.32;101497.59;5032879;28;10657;-66
2022/11/05 04:18:41;;;;;;;;;1.50;1.50;;;;;8.20;77.71;101504.28;5025917;28;10578;-65
2022/11/05 04:24:09;;;;;;;;;2.00;2.00;;;;;8.22;77.10;101510.31;5019443;28;11216;-65
2022/11/05 04:26:38;;;;;;;;;2.00;2.00;;;;;8.19;77.57;101516.84;5021930;28;10643;-64
2022/11/05 04:31:50;;;;;;;;;4.25;4.25;;;;;8.17;77.04;101518.84;5024085;28;10606;-65
2022/11/05 04:34:17;;;;;;;;;1.25;1.00;;;;;8.14;77.32;101508.44;5025032;28;10674;-65
2022/11/05 04:36:45;;;;;;;;;1.00;1.00;;;;;8.16;77.29;101511.81;5026713;28;10700;-66
2022/11/05 04:39:11;;;;;;;;;1.00;1.00;;;;;8.14;77.85;101509.28;5025557;28;10538;-65
2022/11/05 04:41:38;;;;;;;;;2.00;2.00;;;;;8.15;76.71;101507.44;5018407;28;10679;-65
2022/11/05 04:44:04;;;;;;;;;1.50;1.00;;;;;8.16;77.31;101511.81;5025749;28;10450;-65
2022/11/05 04:46:31;;;;;;;;;2.00;2.00;;;;;8.16;77.76;101511.81;5034177;28;11140;-65
2022/11/05 04:48:57;;;;;;;;;4.00;4.00;;;;;8.15;77.25;101515.50;5024954;28;10580;-65
2022/11/05 04:51:23;;;;;;;;;3.50;3.50;;;;;8.16;77.65;101512.63;5030283;28;10634;-64
2022/11/05 04:53:50;;;;;;;;;1.25;1.25;;;;;8.16;77.53;101518.00;5028376;28;10686;-65
2022/11/05 04:56:23;;;;;;;;;7.00;4.25;;;;;8.16;77.18;101523.38;5025326;28;10699;-64
2022/11/05 04:58:50;;;;;;;;;1.00;1.00;;;;;8.17;77.28;101525.03;5030207;28;10693;-65
2022/11/05 05:01:21;;;;;;;;;4.25;2.00;;;;;8.16;77.53;101522.53;5024447;28;10493;-64
2022/11/05 05:03:50;;;;;;;;;2.00;2.00;;;;;8.16;77.75;101519.84;5022231;28;10688;-65
2022/11/05 05:06:17;;;;;;;;;2.50;2.50;;;;;8.16;77.72;101519.84;5020342;28;10445;-65
2022/11/05 05:08:46;;;;;;;;;3.00;3.00;;;;;8.15;77.00;101520.84;5017674;28;10584;-65
2022/11/05 05:11:14;;;;;;;;;2.00;2.00;;;;;8.13;77.53;101522.84;5022078;28;10540;-65
2022/11/05 05:13:41;;;;;;;;;1.50;1.50;;;;;8.11;77.62;101514.97;5022444;28;10662;-65
2022/11/05 05:16:16;;;;;;;;;2.00;2.00;;;;;8.12;77.72;101522.00;5020848;28;10590;-65
2022/11/05 05:18:42;;;;;;;;;1.75;1.75;;;;;8.16;78.46;101522.53;5025121;28;10597;-64
2022/11/05 05:23:57;;;;;;;;;1.75;1.75;;;;;8.14;77.75;101508.44;5023027;28;10898;-64
2022/11/05 05:26:23;;;;;;;;;1.25;1.00;;;;;8.18;77.59;101523.19;5021854;28;10832;-65
2022/11/05 05:28:51;;;;;;;;;1.75;1.75;;;;;8.17;78.10;101522.34;5029866;28;10760;-65
2022/11/05 05:31:18;;;;;;;;;2.00;2.00;;;;;8.15;77.74;101526.22;5024880;28;10690;-64
2022/11/05 05:33:44;;;;;;;;;2.00;2.00;;;;;8.15;77.84;101531.59;5017746;28;10512;-65
2022/11/05 05:36:11;;;;;;;;;4.50;2.00;;;;;8.13;78.26;101523.69;5024614;28;10588;-65
2022/11/05 05:38:37;;;;;;;;;2.00;2.00;;;;;8.08;77.52;101523.34;5028259;28;11353;-65
2022/11/05 05:41:04;;;;;;;;;2.00;2.00;;;;;8.08;77.98;101526.00;5032940;28;10562;-65
2022/11/05 05:43:31;;;;;;;;;3.75;2.50;;;;;8.06;77.97;101524.47;5026025;28;10670;-65
2022/11/05 05:46:06;;;;;;;;;4.00;4.00;;;;;8.04;78.27;101531.88;5022321;28;10698;-64
2022/11/05 05:48:33;;;;;;;;;2.00;2.00;;;;;8.02;78.53;101526.69;5022494;28;11008;-65
2022/11/05 05:51:04;;;;;;;;;4.50;4.00;;;;;7.93;78.28;101533.81;5020015;28;10639;-65
2022/11/05 05:53:31;;;;;;;;;3.50;3.50;;;;;7.94;79.00;101537.38;5027098;28;10665;-64
2022/11/05 05:55:58;;;;;;;;;1.75;1.75;;;;;8.00;78.25;101535.88;5027291;28;11368;-64
2022/11/05 05:58:26;;;;;;;;;1.00;1.00;;;;;8.06;79.17;101540.56;5014651;28;10600;-64
2022/11/05 06:00:53;;;;;;;;;4.00;4.00;;;;;8.09;79.02;101542.94;5027419;28;10532;-64
2022/11/05 06:03:19;;;;;;;;;2.00;2.00;;;;;8.11;78.26;101547.16;5027552;28;10524;-64
2022/11/05 06:05:46;;;;;;;;;2.00;2.00;;;;;8.16;78.25;101538.63;5026188;28;10504;-65
2022/11/05 06:08:13;;;;;;;;;4.00;4.00;;;;;8.16;78.31;101554.72;5015438;28;11289;-65
2022/11/05 06:10:39;;;;;;;;;2.00;2.00;;;;;8.17;77.86;101553.69;5027833;28;10592;-66
2022/11/05 06:13:05;;;;;;;;;2.25;2.00;;;;;8.15;78.05;101551.19;5029729;28;10619;-68
2022/11/05 06:15:32;;;;;;;;;4.00;4.00;;;;;8.13;78.14;101561.22;5041466;28;10436;-66
2022/11/05 06:18:01;;;;;;;;;2.00;2.00;;;;;8.13;78.16;101563.91;5023882;28;10672;-65
2022/11/05 06:20:28;;;;;;;;;4.00;2.50;;;;;8.13;78.31;101557.72;5023524;28;10691;-66
2022/11/05 06:22:56;;;;;;;;;6.50;5.50;;;;;8.13;78.34;101563.06;5027984;28;10525;-66
2022/11/05 06:25:23;;;;;;;;;3.50;2.00;;;;;8.12;78.60;101556.88;5027570;28;10697;-65
2022/11/05 06:27:49;;;;;;;;;2.00;2.00;;;;;8.17;78.83;101556.38;5021412;28;10848;-66
2022/11/05 06:30:16;;;;;;;;;7.75;4.50;;;;;8.23;78.47;101553.06;5023285;28;10776;-65
2022/11/05 06:32:43;;;;;;;;;4.00;4.00;;;;;8.25;78.16;101556.41;5028864;28;10523;-65
2022/11/05 06:35:10;;;;;;;;;2.75;2.75;;;;;8.28;78.61;101558.78;5029054;28;10732;-66
2022/11/05 06:37:37;;;;;;;;;5.50;5.50;;;;;8.26;78.56;101560.78;5022193;28;11570;-65
2022/11/05 06:40:04;;;;;;;;;4.25;4.00;;;;;8.26;77.96;101567.97;5024596;28;12551;-65
2022/11/05 06:42:30;;;;;;;;;5.75;5.75;;;;;8.28;77.92;101564.16;5024758;28;11444;-66
2022/11/05 06:44:57;;;;;;;;;5.00;5.00;;;;;8.29;78.21;101559.63;5019678;28;10720;-66
2022/11/05 06:47:23;;;;;;;;;6.75;6.75;;;;;8.30;77.82;101562.13;5029866;28;10670;-65
2022/11/05 06:49:50;;;;;;;;;4.25;3.00;;;;;8.25;78.03;101553.72;5023138;28;10660;-66
2022/11/05 06:52:16;;;;;;;;;3.00;3.00;;;;;8.22;77.89;101564.78;5031606;28;10624;-66
2022/11/05 06:54:43;;;;;;;;;3.75;3.75;;;;;8.26;78.44;101567.97;5017702;28;10654;-65
2022/11/05 06:57:10;;;;;;;;;6.50;5.00;;;;;8.28;77.96;101568.69;5025024;28;10788;-66
2022/11/05 06:59:38;;;;;;;;;7.00;7.00;;;;;8.22;78.62;101567.47;5022120;28;10767;-65
2022/11/05 07:02:05;;;;;;;;;5.00;4.50;;;;;8.20;78.06;101572.16;5033258;28;10733;-66
2022/11/05 07:04:31;;;;;;;;;4.00;4.00;;;;;8.24;78.40;101578.88;5031443;28;11421;-66
2022/11/05 07:06:59;;;;;;;;;5.50;4.00;;;;;8.28;78.37;101587.44;5037274;28;10661;-65
2022/11/05 07:09:27;;;;;;;;;4.50;4.00;;;;;8.32;78.27;101578.91;5024157;28;10817;-66
2022/11/05 07:11:54;;;;;;;;;6.50;6.50;;;;;8.37;77.99;101567.72;5032286;28;11413;-66
2022/11/05 07:14:21;;;;;;;;;4.50;2.00;;;;;8.41;78.33;101575.28;5022003;28;11327;-66
2022/11/05 07:16:47;;;;;;;;;4.00;4.00;;;;;8.40;77.33;101570.09;5032736;28;10525;-66
2022/11/05 07:19:13;;;;;;;;;4.00;2.00;;;;;8.38;78.16;101567.56;5024248;28;10661;-66
2022/11/05 07:21:40;;;;;;;;;5.50;5.50;;;;;8.34;78.21;101570.69;5035244;28;10633;-66
2022/11/05 07:24:07;;;;;;;;;8.25;6.50;;;;;8.26;78.07;101576.88;5035768;28;10842;-66
2022/11/05 07:26:33;;;;;;;;;9.50;8.25;;;;;8.21;78.15;101579.19;5030730;28;10960;-65
2022/11/05 07:29:00;;;;;;;;;6.50;6.00;;;;;8.22;78.03;101580.88;5031033;28;10818;-66
2022/11/05 07:31:26;;;;;;;;;5.50;5.50;;;;;8.16;78.24;101586.91;5028932;28;10704;-65
2022/11/05 07:33:53;;;;;;;;;4.50;4.50;;;;;8.19;78.43;101586.56;5032051;28;10513;-65
2022/11/05 07:36:19;;;;;;;;;4.00;4.00;;;;;8.13;78.50;101579.16;5040666;28;10575;-65
2022/11/05 07:38:46;;;;;;;;;8.00;8.00;;;;;8.16;78.52;101581.53;5031555;28;11349;-66
2022/11/05 07:41:12;;;;;;;;;5.00;5.00;;;;;8.17;78.67;101585.88;5022924;28;10586;-66
2022/11/05 07:43:38;;;;;;;;;9.50;9.50;;;;;8.14;78.37;101581.69;5030548;28;10617;-66
2022/11/05 07:46:05;;;;;;;;;4.75;4.75;;;;;8.13;79.12;101580.00;5024370;28;10665;-66
2022/11/05 07:48:38;;;;;;;;;5.25;5.25;;;;;8.22;78.83;101591.59;5023294;28;10543;-66
2022/11/05 07:51:05;;;;;;;;;6.00;5.25;;;;;8.31;79.04;101585.28;5037314;28;10645;-66
2022/11/05 07:53:31;;;;;;;;;8.75;5.25;;;;;8.31;78.08;101590.66;5021129;28;10665;-65
2022/11/05 07:55:58;;;;;;;;;7.75;7.50;;;;;8.36;78.06;101585.66;5020279;28;10783;-66
2022/11/05 07:58:24;;;;;;;;;7.50;6.00;;;;;8.34;78.72;101593.00;5028514;28;10853;-66
2022/11/05 08:00:50;;;;;;;;;10.25;9.00;;;;;8.31;78.61;101592.50;5024672;28;12893;-66
2022/11/05 08:03:17;;;;;;;;;9.25;8.50;;;;;8.39;78.62;101592.56;5029023;28;10805;-66
2022/11/05 08:05:46;;;;;;;;;9.00;9.00;;;;;8.41;78.21;101594.06;5027625;28;11553;-66
2022/11/05 08:08:15;;;;;;;;;4.75;4.75;;;;;8.49;78.48;101597.78;5036977;28;10743;-66
2022/11/05 08:10:41;;;;;;;;;5.75;4.50;;;;;8.54;78.58;101588.25;5028228;28;10578;-66
2022/11/05 08:13:08;;;;;;;;;8.25;8.25;;;;;8.71;78.80;101589.16;5021127;28;10720;-66
2022/11/05 08:15:36;;;;;;;;;6.00;6.00;;;;;8.80;78.39;101590.84;5032905;28;10629;-66
2022/11/05 08:18:05;;;;;;;;;12.50;8.25;;;;;8.86;78.64;101592.88;5034372;28;10748;-67
2022/11/05 08:20:32;;;;;;;;;10.75;8.75;;;;;8.96;78.15;101591.91;5028737;28;10686;-66
2022/11/05 08:22:59;;;;;;;;;6.75;6.00;;;;;9.09;78.23;101594.94;5024256;28;10492;-67
2022/11/05 08:25:26;;;;;;;;;9.00;9.00;;;;;9.11;77.89;101592.91;5026000;28;10525;-66
2022/11/05 08:28:04;;;;;;;;;5.75;5.75;;;;;9.22;78.02;101592.59;5027120;28;10573;-67
2022/11/05 08:30:31;;;;;;;;;7.75;7.00;;;;;9.34;78.15;101591.25;5029211;28;10452;-66
2022/11/05 08:33:00;;;;;;;;;6.75;6.50;;;;;9.38;77.33;101589.91;5028343;28;10438;-66
2022/11/05 08:35:27;;;;;;;;;7.00;7.00;;;;;9.41;77.44;101589.56;5026654;28;10563;-66
2022/11/05 08:37:58;;;;;;;;;11.75;7.00;;;;;9.47;77.15;101597.97;5024392;28;10302;-67
2022/11/05 08:40:25;;;;;;;;;12.25;12.25;;;;;9.41;77.69;101592.25;5017008;28;10396;-67
2022/11/05 08:42:51;;;;;;;;;10.25;8.00;;;;;9.38;77.47;101597.97;5043832;28;10590;-66
2022/11/05 08:45:18;;;;;;;;;10.00;8.00;;;;;9.50;78.05;101593.09;5027349;28;10476;-67
2022/11/05 08:47:44;;;;;;;;;11.00;11.00;;;;;9.45;78.05;101598.13;5028707;28;10405;-67
2022/11/05 08:50:11;;;;;;;;;10.75;10.00;;;;;9.52;78.02;101607.22;5021692;28;10754;-67
2022/11/05 08:52:39;;;;;;;;;8.00;8.00;;;;;9.62;78.29;101605.19;5018442;28;10505;-66
2022/11/05 08:55:06;;;;;;;;;10.00;7.25;;;;;9.73;77.84;101601.31;5022681;28;10446;-66
2022/11/05 08:57:32;;;;;;;;;11.00;8.75;;;;;9.79;77.60;101608.69;5027125;28;10229;-66
2022/11/05 08:59:58;;;;;;;;;12.50;9.75;;;;;9.84;77.78;101606.34;5019726;28;10499;-66
2022/11/05 09:02:25;;;;;;;;;8.00;8.00;;;;;9.88;77.29;101610.38;5027240;28;10589;-66
2022/11/05 09:04:51;;;;;;;;;9.00;9.00;;;;;10.02;77.46;101605.28;5013467;28;10460;-65
2022/11/05 09:07:18;;;;;;;;;6.75;6.75;;;;;10.07;77.27;101600.22;5017656;28;11059;-66
2022/11/05 09:09:44;;;;;;;;;9.00;8.25;;;;;10.07;76.81;101600.22;5026575;28;10382;-68
2022/11/05 09:12:10;;;;;;;;;5.75;5.75;;;;;10.11;76.55;101612.31;5022301;28;10659;-66
2022/11/05 09:14:38;;;;;;;;;9.00;5.50;;;;;10.04;76.06;101595.19;5019993;28;10934;-66
2022/11/05 09:17:15;;;;;;;;;8.25;8.25;;;;;10.13;76.53;101597.69;5029131;28;10417;-66
2022/11/05 09:19:42;;;;;;;;;6.50;5.75;;;;;10.25;76.32;101597.34;5024849;28;10225;-66
2022/11/05 09:22:11;;;;;;;;;6.50;6.00;;;;;10.37;76.38;101601.31;5018775;28;10220;-65
2022/11/05 09:24:38;;;;;;;;;8.00;7.50;;;;;10.39;76.13;101600.16;5016793;28;10176;-66
2022/11/05 09:27:09;;;;;;;;;7.25;7.00;;;;;10.46;75.59;101597.59;5028296;28;10239;-65
2022/11/05 09:29:35;;;;;;;;;6.25;6.00;;;;;10.49;75.30;101609.84;5027455;28;10132;-66
2022/11/05 09:32:02;;;;;;;;;5.00;5.00;;;;;10.59;75.79;101605.13;5016808;28;10905;-66
2022/11/05 09:34:28;;;;;;;;;7.00;7.00;;;;;10.61;75.33;101597.69;5023975;28;10175;-66
2022/11/05 09:36:56;;;;;;;;;9.50;9.25;;;;;10.61;75.75;101595.88;5030200;28;10213;-65
2022/11/05 09:39:23;;;;;;;;;7.75;5.00;;;;;10.68;75.36;101595.13;5020517;28;10351;-66
2022/11/05 09:41:52;;;;;;;;;7.50;7.50;;;;;10.67;75.54;101602.38;5021524;28;10029;-65
2022/11/05 09:44:22;;;;;;;;;6.25;6.25;;;;;10.69;75.11;101603.03;5013554;28;10910;-66
2022/11/05 09:46:56;;;;;;;;;6.00;4.75;;;;;10.74;75.00;101602.53;5024848;28;10090;-66
2022/11/05 09:49:43;;;;;;;;;7.25;7.25;;;;;10.70;75.01;101603.91;5025657;28;10130;-66
2022/11/05 09:52:17;;;;;;;;;8.00;8.00;;;;;10.55;75.06;101601.94;5020037;28;10009;-65
2022/11/05 09:54:44;;;;;;;;;8.75;7.50;;;;;10.51;75.64;101603.31;5029838;28;10129;-65
2022/11/05 09:57:16;;;;;;;;;6.75;6.00;;;;;10.46;75.68;101604.84;5027957;28;10210;-65
2022/11/05 09:59:49;;;;;;;;;5.00;5.00;;;;;10.57;75.61;101605.31;5044534;28;10200;-66
2022/11/05 10:02:27;;;;;;;;;10.50;7.00;;;;;10.59;75.31;101614.03;5024904;28;10136;-65
2022/11/05 10:04:58;;;;;;;;;8.50;5.50;;;;;10.58;75.16;101615.06;5010611;28;10192;-65
2022/11/05 10:07:42;;;;;;;;;11.25;9.75;;;;;10.53;75.59;101612.06;5025079;28;11020;-65
2022/11/05 10:10:25;;;;;;;;;12.00;10.75;;;;;10.49;76.17;101608.03;5027601;28;10336;-66
2022/11/05 10:12:57;;;;;;;;;10.00;10.00;;;;;10.55;75.85;101607.31;5026053;28;10406;-65
2022/11/05 10:15:33;;;;;;;;;6.00;6.00;;;;;10.45;76.16;101598.63;5025200;28;10340;-66
2022/11/05 10:18:15;;;;;;;;;5.00;4.75;;;;;10.46;75.49;101604.84;5033934;28;10203;-67
2022/11/05 10:20:43;;;;;;;;;6.75;6.75;;;;;10.48;75.71;101606.34;5027784;28;10171;-67
2022/11/05 10:23:13;;;;;;;;;5.00;5.00;;;;;10.54;75.99;101605.66;5022268;28;10267;-66
2022/11/05 10:25:44;;;;;;;;;8.75;8.75;;;;;10.48;75.68;101598.25;5021422;28;10988;-66
2022/11/05 10:28:20;;;;;;;;;8.50;8.50;;;;;10.49;75.53;101604.47;5032335;28;10315;-65
2022/11/05 10:30:51;;;;;;;;;7.50;7.00;;;;;10.48;75.75;101611.72;5015289;28;10220;-65
2022/11/05 10:33:34;;;;;;;;;9.25;5.75;;;;;10.53;75.70;101612.06;5027862;28;10166;-66
2022/11/05 10:36:04;;;;;;;;;6.00;6.00;;;;;10.56;75.34;101611.69;5030533;28;10097;-66
2022/11/05 10:38:31;;;;;;;;;5.00;5.00;;;;;10.58;75.29;101609.66;5031446;28;10265;-66
2022/11/05 10:41:29;;;;;;;;;11.00;8.50;;;;;10.56;75.33;101611.69;5032970;28;10093;-66
2022/11/05 10:44:21;;;;;;;;;6.00;6.00;;;;;10.57;75.65;101617.91;5030611;28;10241;-66
2022/11/05 10:47:12;;;;;;;;;11.50;6.00;;;;;10.55;75.99;101618.09;5032154;28;10255;-65
2022/11/05 10:49:58;;;;;;;;;6.25;6.25;;;;;10.45;76.00;101617.47;5031436;28;10943;-66
2022/11/05 10:52:44;;;;;;;;;7.25;4.25;;;;;10.50;75.94;101619.63;5013436;28;10320;-65
2022/11/05 10:55:25;;;;;;;;;7.50;7.50;;;;;10.53;75.51;101621.97;5028577;28;10303;-66
2022/11/05 10:57:52;;;;;;;;;7.50;7.50;;;;;10.47;75.76;101625.38;5019642;28;10164;-65
2022/11/05 11:00:27;;;;;;;;;4.00;4.00;;;;;10.49;75.71;101626.00;5030187;28;10246;-67
2022/11/05 11:02:58;;;;;;;;;5.50;5.50;;;;;10.49;75.77;101617.94;5031930;28;10124;-66
2022/11/05 11:05:24;;;;;;;;;6.00;5.50;;;;;10.49;75.51;101620.63;5029968;28;10125;-66
2022/11/05 11:07:54;;;;;;;;;4.25;4.25;;;;;10.50;75.75;101617.78;5026127;28;10216;-66
2022/11/05 11:10:22;;;;;;;;;6.00;5.00;;;;;10.53;75.35;101620.13;5032446;28;10096;-65
2022/11/05 11:12:50;;;;;;;;;5.25;4.50;;;;;10.52;75.60;101618.44;5021774;28;10174;-66
2022/11/05 11:15:20;;;;;;;;;6.25;5.00;;;;;10.52;75.15;101621.13;5032149;28;10082;-66
2022/11/05 11:17:46;;;;;;;;;4.50;4.00;;;;;10.59;75.37;101621.28;5031119;28;10097;-66
2022/11/05 11:20:24;;;;;;;;;3.50;3.50;;;;;10.72;74.85;101616.16;5031750;28;10062;-65
2022/11/05 11:23:13;;;;;;;;;5.00;5.00;;;;;10.78;74.86;101620.00;5015538;28;10873;-66
2022/11/05 11:25:52;;;;;;;;;5.75;5.00;;;;;10.85;74.67;101615.56;5031381;28;9934;-67
2022/11/05 11:28:23;;;;;;;;;6.25;5.00;;;;;10.91;74.89;101624.81;5029454;28;10028;-66
2022/11/05 11:31:19;;;;;;;;;10.00;5.00;;;;;10.83;73.99;101626.53;5025768;28;10024;-65
2022/11/05 11:33:50;;;;;;;;;5.50;5.50;;;;;10.82;73.86;101608.72;5026217;28;10077;-67
2022/11/05 11:36:23;;;;;;;;;6.75;5.00;;;;;10.97;73.78;101626.78;5031686;28;10020;-67
2022/11/05 11:38:58;;;;;;;;;4.50;4.50;;;;;11.07;73.57;101616.63;5031989;28;10064;-66
2022/11/05 11:41:29;;;;;;;;;7.50;6.25;;;;;11.00;73.18;101605.72;5030252;28;10608;-66
2022/11/05 11:44:01;;;;;;;;;6.50;6.00;;;;;11.06;73.27;101606.84;5030426;28;10087;-66
2022/11/05 11:46:31;;;;;;;;;3.25;2.00;;;;;11.12;72.86;101619.63;5031275;28;10745;-66
2022/11/05 11:48:58;;;;;;;;;3.00;3.00;;;;;11.13;72.49;101602.44;5030808;28;9927;-66
2022/11/05 11:51:40;;;;;;;;;6.00;6.00;;;;;11.10;72.55;101602.78;5031786;28;9847;-66
2022/11/05 11:54:19;;;;;;;;;5.00;5.00;;;;;11.14;72.59;101606.81;5031462;28;10030;-65
2022/11/05 11:56:47;;;;;;;;;5.00;5.00;;;;;11.01;72.23;101603.88;5030316;28;9758;-65
2022/11/05 11:59:21;;;;;;;;;3.75;2.25;;;;;11.02;72.14;101610.91;5031500;28;9839;-65
2022/11/05 12:02:25;;;;;;;;;6.00;4.25;;;;;11.16;72.17;101612.03;5024204;28;9913;-65
2022/11/05 12:05:03;;;;;;;;;5.25;4.25;;;;;11.07;71.68;101608.56;5021518;28;10043;-64
2022/11/05 12:07:51;;;;;;;;;8.00;5.00;;;;;11.03;71.40;101610.75;5031770;28;9865;-65
2022/11/05 12:10:27;;;;;;;;;6.75;5.00;;;;;11.11;71.25;101604.47;5030876;28;9881;-64
2022/11/05 12:13:10;;;;;;;;;2.75;1.75;;;;;11.24;70.36;101602.03;5014176;28;9869;-66
2022/11/05 12:15:53;;;;;;;;;4.00;4.00;;;;;11.32;70.63;101601.13;5023442;28;9668;-65
2022/11/05 12:18:24;;;;;;;;;4.50;4.50;;;;;11.45;69.99;101603.22;5023558;28;10290;-65
2022/11/05 12:21:03;;;;;;;;;2.00;2.00;;;;;11.50;69.96;101590.00;5015115;28;9757;-66
2022/11/05 12:23:29;;;;;;;;;4.50;3.25;;;;;11.30;69.66;101593.22;5026221;28;9601;-65
2022/11/05 12:26:25;;;;;;;;;5.50;4.00;;;;;11.17;69.81;101587.59;5024812;28;9745;-65
2022/11/05 12:29:19;;;;;;;;;3.50;3.00;;;;;11.17;69.98;101586.75;5023043;28;9652;-65
2022/11/05 12:32:16;;;;;;;;;2.00;2.00;;;;;11.26;69.77;101591.06;5018586;28;9691;-65
2022/11/05 12:35:05;;;;;;;;;7.75;4.00;;;;;11.20;69.58;101592.63;5019448;28;9732;-66
2022/11/05 12:37:49;;;;;;;;;4.00;4.00;;;;;11.27;69.51;101595.44;5011611;28;9694;-65